Air Quality Table

TIMESTAMP NO2 SO2 O3 CO TEMP HUM AIRPRES WS WD NO BENZENE
2022-07-03 15:00 11.97 µg/m3 0.15 µg/m3 65.96 µg/m3 0.26 mg/m3 28.8 °C 83.51 % 1,013.75 mbar 4.23 m/s 63.35 Deg 6.76 µg/m3 0.89 µg/m3
2022-07-03 14:00 9.03 µg/m3 -0.01 µg/m3 74.64 µg/m3 0.25 mg/m3 28.31 °C 84.32 % 1,013.85 mbar 4.68 m/s 66.66 Deg 3.69 µg/m3 0.82 µg/m3
2022-07-03 13:00 9.98 µg/m3 0.03 µg/m3 75.46 µg/m3 0.26 mg/m3 28.29 °C 81.83 % 1,014.03 mbar 4.88 m/s 67.44 Deg 3.2 µg/m3 0.79 µg/m3
2022-07-03 12:00 11.33 µg/m3 0.26 µg/m3 81.11 µg/m3 0.26 mg/m3 28.6 °C 76.66 % 1,014.31 mbar 4.08 m/s 66.86 Deg 4.51 µg/m3 1.26 µg/m3
2022-07-03 11:00 17.78 µg/m3 0.34 µg/m3 72.25 µg/m3 0.25 mg/m3 28.63 °C 73.79 % 1,014.16 mbar 3.67 m/s 64.75 Deg 14.88 µg/m3 1.21 µg/m3
2022-07-03 10:00 16.88 µg/m3 0.38 µg/m3 63.34 µg/m3 0.23 mg/m3 28.61 °C 71.81 % 1,013.65 mbar 3.46 m/s 67.45 Deg 5.47 µg/m3 1.57 µg/m3
2022-07-03 09:00 21.07 µg/m3 0.41 µg/m3 43.4 µg/m3 0.24 mg/m3 28.4 °C 77.14 % 1,013.40 mbar 2.8 m/s 57.34 Deg 7.14 µg/m3 1.6 µg/m3
2022-07-03 08:00 18.45 µg/m3 0.12 µg/m3 47.56 µg/m3 0.22 mg/m3 28.09 °C 80.32 % 1,013.16 mbar 2.3 m/s 68.71 Deg 5.25 µg/m3 0.86 µg/m3
2022-07-03 07:00 13.73 µg/m3 -0.05 µg/m3 45.59 µg/m3 0.19 mg/m3 27.34 °C 85.27 % 1,012.75 mbar 1.96 m/s 63.48 Deg 2.18 µg/m3 0.65 µg/m3
2022-07-03 06:00 9.71 µg/m3 0.16 µg/m3 44.28 µg/m3 0.18 mg/m3 26.44 °C 91.04 % 1,012.54 mbar 1.39 m/s 58.53 Deg 1.07 µg/m3 0.63 µg/m3
2022-07-03 05:00 19.06 µg/m3 0.42 µg/m3 25.55 µg/m3 0.19 mg/m3 25.98 °C 90.14 % 1,012.28 mbar 0.98 m/s 128.07 Deg 5.17 µg/m3 1.12 µg/m3
2022-07-03 04:00 27.99 µg/m3 0.52 µg/m3 10.29 µg/m3 0.21 mg/m3 24.96 °C 89.19 % 1,011.99 mbar 0.07 m/s 173.2 Deg 12.87 µg/m3 1.05 µg/m3
2022-07-03 03:00 34.43 µg/m3 0.28 µg/m3 11.03 µg/m3 0.13 mg/m3 24.47 °C 92.18 % 1,012.24 mbar 0.74 m/s 263.46 Deg 11.49 µg/m3 0.58 µg/m3
2022-07-03 02:00 17.54 µg/m3 0.51 µg/m3 28.93 µg/m3 0.21 mg/m3 24.83 °C 94.02 % 1,012.60 mbar 0.85 m/s 221.04 Deg 5.8 µg/m3 0.79 µg/m3
2022-07-03 01:00 19.91 µg/m3 0.36 µg/m3 21.24 µg/m3 0.24 mg/m3 25.17 °C 94.71 % 1,012.84 mbar 1.25 m/s 218.89 Deg 8.26 µg/m3 1.21 µg/m3
2022-07-03 00:00 30.83 µg/m3 0.68 µg/m3 13.94 µg/m3 0.31 mg/m3 25.37 °C 94.55 % 1,012.83 mbar 0.82 m/s 227.45 Deg 15.43 µg/m3 1.29 µg/m3
2022-07-02 23:00 30.35 µg/m3 0.26 µg/m3 28.43 µg/m3 0.28 mg/m3 25.95 °C 93.5 % 1,013.12 mbar 0.91 m/s 230.67 Deg 10.57 µg/m3 0.76 µg/m3
2022-07-02 22:00 15.37 µg/m3 0.07 µg/m3 48.68 µg/m3 0.21 mg/m3 26.35 °C 92.2 % 1,013.23 mbar 1.78 m/s 239.13 Deg 2.61 µg/m3 0.65 µg/m3
2022-07-02 21:00 12.73 µg/m3 0.4 µg/m3 47.59 µg/m3 0.18 mg/m3 26.7 °C 86.14 % 1,012.84 mbar 2.16 m/s 255.79 Deg 1.78 µg/m3 0.61 µg/m3
2022-07-02 20:00 9.48 µg/m3 0.01 µg/m3 55.55 µg/m3 0.18 mg/m3 26.77 °C 89.69 % 1,012.64 mbar 3.5 m/s 256.14 Deg 1.91 µg/m3 0.56 µg/m3
2022-07-02 19:00 10.35 µg/m3 0.08 µg/m3 56.86 µg/m3 0.18 mg/m3 27.26 °C 88.99 % 1,012.37 mbar 5 m/s 257.08 Deg 2.16 µg/m3 0.39 µg/m3
2022-07-02 18:00 8.25 µg/m3 -0.11 µg/m3 56.35 µg/m3 0.19 mg/m3 28.34 °C 81.04 % 1,012.78 mbar 5.69 m/s 252.58 Deg 2.34 µg/m3 0.55 µg/m3

It is to be noted that the data is provisional and subject to quality assurance procedures. For validated data kindly refer your request to contact.air@era.org.mt